sensor_id;sensor_type;location;lat;lon;timestamp;pressure;altitude;pressure_sealevel;temperature;humidity
78117;BME280;69042;59.120;37.904;2024-02-26T00:01:02;100860.78;;;3.04;72.56
78117;BME280;69042;59.120;37.904;2024-02-26T00:03:29;100849.59;;;3.05;72.91
78117;BME280;69042;59.120;37.904;2024-02-26T00:05:55;100856.50;;;3.04;72.28
78117;BME280;69042;59.120;37.904;2024-02-26T00:08:24;100852.19;;;3.03;71.99
78117;BME280;69042;59.120;37.904;2024-02-26T00:10:50;100860.81;;;3.02;72.44
78117;BME280;69042;59.120;37.904;2024-02-26T00:13:17;100859.06;;;2.98;72.45
78117;BME280;69042;59.120;37.904;2024-02-26T00:15:43;100854.75;;;2.94;72.13
78117;BME280;69042;59.120;37.904;2024-02-26T00:18:10;100845.28;;;2.91;72.68
78117;BME280;69042;59.120;37.904;2024-02-26T00:20:37;100847.88;;;2.88;72.47
78117;BME280;69042;59.120;37.904;2024-02-26T00:23:05;100839.25;;;2.88;72.04
78117;BME280;69042;59.120;37.904;2024-02-26T00:25:31;100846.16;;;2.84;72.09
78117;BME280;69042;59.120;37.904;2024-02-26T00:27:58;100855.59;;;2.81;71.93
78117;BME280;69042;59.120;37.904;2024-02-26T00:30:24;100853.88;;;2.78;72.04
78117;BME280;69042;59.120;37.904;2024-02-26T00:32:51;100862.50;;;2.77;72.27
78117;BME280;69042;59.120;37.904;2024-02-26T00:35:17;100855.56;;;2.75;72.65
78117;BME280;69042;59.120;37.904;2024-02-26T00:37:46;100859.03;;;2.74;71.84
78117;BME280;69042;59.120;37.904;2024-02-26T00:40:13;100859.91;;;2.73;72.29
78117;BME280;69042;59.120;37.904;2024-02-26T00:42:39;100860.75;;;2.71;72.93
78117;BME280;69042;59.120;37.904;2024-02-26T00:45:36;100858.16;;;2.70;72.71
78117;BME280;69042;59.120;37.904;2024-02-26T00:48:03;100863.31;;;2.71;72.61
78117;BME280;69042;59.120;37.904;2024-02-26T00:50:35;100859.00;;;2.72;72.37
78117;BME280;69042;59.120;37.904;2024-02-26T00:53:02;100859.91;;;2.73;72.39
78117;BME280;69042;59.120;37.904;2024-02-26T00:55:28;100859.03;;;2.74;72.24
78117;BME280;69042;59.120;37.904;2024-02-26T00:57:55;100837.53;;;2.73;72.36
78117;BME280;69042;59.120;37.904;2024-02-26T01:00:22;100845.25;;;2.75;72.68
78117;BME280;69042;59.120;37.904;2024-02-26T01:02:48;100853.88;;;2.77;72.40
78117;BME280;69042;59.120;37.904;2024-02-26T01:05:14;100847.00;;;2.76;72.01
78117;BME280;69042;59.120;37.904;2024-02-26T01:07:42;100850.41;;;2.75;72.21
78117;BME280;69042;59.120;37.904;2024-02-26T01:10:09;100852.13;;;2.74;72.35
78117;BME280;69042;59.120;37.904;2024-02-26T01:12:35;100849.56;;;2.74;72.38
78117;BME280;69042;59.120;37.904;2024-02-26T01:15:03;100848.72;;;2.74;72.43
78117;BME280;69042;59.120;37.904;2024-02-26T01:17:30;100851.28;;;2.69;72.22
78117;BME280;69042;59.120;37.904;2024-02-26T01:19:56;100857.31;;;2.73;71.97
78117;BME280;69042;59.120;37.904;2024-02-26T01:22:22;100851.28;;;2.72;72.08
78117;BME280;69042;59.120;37.904;2024-02-26T01:24:50;100849.56;;;2.76;72.14
78117;BME280;69042;59.120;37.904;2024-02-26T01:27:16;100840.97;;;2.77;72.47
78117;BME280;69042;59.120;37.904;2024-02-26T01:29:42;100836.66;;;2.74;72.38
78117;BME280;69042;59.120;37.904;2024-02-26T01:32:09;100845.25;;;2.75;71.89
78117;BME280;69042;59.120;37.904;2024-02-26T01:34:35;100840.09;;;2.71;71.71
78117;BME280;69042;59.120;37.904;2024-02-26T01:37:03;100837.53;;;2.68;71.47
78117;BME280;69042;59.120;37.904;2024-02-26T01:39:29;100842.66;;;2.67;72.01
78117;BME280;69042;59.120;37.904;2024-02-26T01:41:56;100858.16;;;2.68;72.02
78117;BME280;69042;59.120;37.904;2024-02-26T01:44:23;100850.41;;;2.67;72.45
78117;BME280;69042;59.120;37.904;2024-02-26T01:46:49;100847.84;;;2.67;72.14
78117;BME280;69042;59.120;37.904;2024-02-26T01:49:16;100846.09;;;2.67;72.06
78117;BME280;69042;59.120;37.904;2024-02-26T01:51:43;100850.41;;;2.67;71.87
78117;BME280;69042;59.120;37.904;2024-02-26T01:54:12;100844.38;;;2.63;72.06
78117;BME280;69042;59.120;37.904;2024-02-26T01:56:39;100848.69;;;2.63;71.75
78117;BME280;69042;59.120;37.904;2024-02-26T01:59:07;100843.53;;;2.64;71.67
78117;BME280;69042;59.120;37.904;2024-02-26T02:01:35;100840.09;;;2.62;71.90
78117;BME280;69042;59.120;37.904;2024-02-26T02:04:02;100834.06;;;2.63;71.94
78117;BME280;69042;59.120;37.904;2024-02-26T02:06:29;100828.06;;;2.61;71.60
78117;BME280;69042;59.120;37.904;2024-02-26T02:08:56;100836.63;;;2.63;71.52
78117;BME280;69042;59.120;37.904;2024-02-26T02:11:23;100828.03;;;2.60;71.80
78117;BME280;69042;59.120;37.904;2024-02-26T02:13:49;100822.00;;;2.56;72.16
78117;BME280;69042;59.120;37.904;2024-02-26T02:16:15;100826.31;;;2.57;72.20
78117;BME280;69042;59.120;37.904;2024-02-26T02:18:42;100821.16;;;2.57;72.02
78117;BME280;69042;59.120;37.904;2024-02-26T02:21:08;100814.25;;;2.52;71.19
78117;BME280;69042;59.120;37.904;2024-02-26T02:23:34;100822.00;;;2.56;71.41
78117;BME280;69042;59.120;37.904;2024-02-26T02:26:01;100810.84;;;2.56;71.79
78117;BME280;69042;59.120;37.904;2024-02-26T02:28:28;100809.94;;;2.52;71.14
78117;BME280;69042;59.120;37.904;2024-02-26T02:30:55;100814.28;;;2.53;72.06
78117;BME280;69042;59.120;37.904;2024-02-26T02:33:22;100819.44;;;2.53;71.72
78117;BME280;69042;59.120;37.904;2024-02-26T02:35:49;100818.56;;;2.53;71.37
78117;BME280;69042;59.120;37.904;2024-02-26T02:38:17;100816.00;;;2.56;71.74
78117;BME280;69042;59.120;37.904;2024-02-26T02:40:43;100812.53;;;2.57;72.02
78117;BME280;69042;59.120;37.904;2024-02-26T02:43:09;100817.72;;;2.58;71.64
78117;BME280;69042;59.120;37.904;2024-02-26T02:45:36;100823.75;;;2.57;71.69
78117;BME280;69042;59.120;37.904;2024-02-26T02:48:02;100808.25;;;2.59;71.22
78117;BME280;69042;59.120;37.904;2024-02-26T02:50:29;100817.72;;;2.58;70.84
78117;BME280;69042;59.120;37.904;2024-02-26T02:52:55;100805.66;;;2.54;71.46
78117;BME280;69042;59.120;37.904;2024-02-26T02:55:22;100804.81;;;2.55;71.61
78117;BME280;69042;59.120;37.904;2024-02-26T02:57:48;100814.25;;;2.52;71.72
78117;BME280;69042;59.120;37.904;2024-02-26T03:00:15;100810.81;;;2.51;71.42
78117;BME280;69042;59.120;37.904;2024-02-26T03:02:41;100809.09;;;2.52;71.18
78117;BME280;69042;59.120;37.904;2024-02-26T03:05:08;100814.25;;;2.52;71.55
78117;BME280;69042;59.120;37.904;2024-02-26T03:07:35;100813.41;;;2.51;71.55
78117;BME280;69042;59.120;37.904;2024-02-26T03:10:01;100815.97;;;2.51;71.15
78117;BME280;69042;59.120;37.904;2024-02-26T03:12:28;100814.25;;;2.48;71.70
78117;BME280;69042;59.120;37.904;2024-02-26T03:14:54;100810.78;;;2.40;70.85
78117;BME280;69042;59.120;37.904;2024-02-26T03:17:21;100805.63;;;2.45;71.54
78117;BME280;69042;59.120;37.904;2024-02-26T03:19:47;100810.81;;;2.46;71.28
78117;BME280;69042;59.120;37.904;2024-02-26T03:22:19;100808.25;;;2.48;71.55
78117;BME280;69042;59.120;37.904;2024-02-26T03:24:46;100801.34;;;2.47;71.32
78117;BME280;69042;59.120;37.904;2024-02-26T03:27:13;100803.94;;;2.44;71.29
78117;BME280;69042;59.120;37.904;2024-02-26T03:29:40;100802.19;;;2.40;71.22
78117;BME280;69042;59.120;37.904;2024-02-26T03:32:06;100809.94;;;2.43;71.04
78117;BME280;69042;59.120;37.904;2024-02-26T03:34:33;100811.66;;;2.41;71.10
78117;BME280;69042;59.120;37.904;2024-02-26T03:37:02;100807.34;;;2.38;71.14
78117;BME280;69042;59.120;37.904;2024-02-26T03:39:28;100814.22;;;2.35;71.18
78117;BME280;69042;59.120;37.904;2024-02-26T03:41:55;100805.63;;;2.36;71.41
78117;BME280;69042;59.120;37.904;2024-02-26T03:44:21;100807.38;;;2.37;70.94
78117;BME280;69042;59.120;37.904;2024-02-26T03:46:47;100804.78;;;2.35;71.86
78117;BME280;69042;59.120;37.904;2024-02-26T03:49:14;100815.09;;;2.35;71.37
78117;BME280;69042;59.120;37.904;2024-02-26T03:51:40;100807.34;;;2.34;71.28
78117;BME280;69042;59.120;37.904;2024-02-26T03:54:07;100803.03;;;2.31;71.18
78117;BME280;69042;59.120;37.904;2024-02-26T03:56:34;100804.78;;;2.32;71.57
78117;BME280;69042;59.120;37.904;2024-02-26T03:59:00;100806.47;;;2.32;71.40
78117;BME280;69042;59.120;37.904;2024-02-26T04:01:29;100803.91;;;2.33;71.41
78117;BME280;69042;59.120;37.904;2024-02-26T04:03:55;100798.72;;;2.32;71.41
78117;BME280;69042;59.120;37.904;2024-02-26T04:06:21;100805.59;;;2.29;71.35
78117;BME280;69042;59.120;37.904;2024-02-26T04:08:48;100799.56;;;2.24;70.98
78117;BME280;69042;59.120;37.904;2024-02-26T04:11:15;100795.28;;;2.23;71.43
78117;BME280;69042;59.120;37.904;2024-02-26T04:13:44;100800.41;;;2.20;71.35
78117;BME280;69042;59.120;37.904;2024-02-26T04:16:15;100803.00;;;2.20;71.69
78117;BME280;69042;59.120;37.904;2024-02-26T04:18:42;100796.16;;;2.21;71.91
78117;BME280;69042;59.120;37.904;2024-02-26T04:21:09;100796.13;;;2.22;71.62
78117;BME280;69042;59.120;37.904;2024-02-26T04:23:35;100800.44;;;2.23;71.16
78117;BME280;69042;59.120;37.904;2024-02-26T04:26:02;100803.88;;;2.27;71.31
78117;BME280;69042;59.120;37.904;2024-02-26T04:28:28;100801.31;;;2.28;71.78
78117;BME280;69042;59.120;37.904;2024-02-26T04:30:55;100792.72;;;2.26;71.01
78117;BME280;69042;59.120;37.904;2024-02-26T04:33:22;100796.16;;;2.28;71.79
78117;BME280;69042;59.120;37.904;2024-02-26T04:35:50;100799.59;;;2.27;72.16
78117;BME280;69042;59.120;37.904;2024-02-26T04:38:17;100793.56;;;2.25;71.26
78117;BME280;69042;59.120;37.904;2024-02-26T04:40:44;100797.88;;;2.23;71.99
78117;BME280;69042;59.120;37.904;2024-02-26T04:43:10;100797.00;;;2.21;70.96
78117;BME280;69042;59.120;37.904;2024-02-26T04:45:36;100796.97;;;2.18;71.09
78117;BME280;69042;59.120;37.904;2024-02-26T04:48:03;100795.25;;;2.16;72.03
78117;BME280;69042;59.120;37.904;2024-02-26T04:50:29;100786.66;;;2.15;71.78
78117;BME280;69042;59.120;37.904;2024-02-26T04:52:56;100783.22;;;2.13;71.50
78117;BME280;69042;59.120;37.904;2024-02-26T04:55:22;100777.19;;;2.10;71.38
78117;BME280;69042;59.120;37.904;2024-02-26T04:57:49;100778.06;;;2.10;71.87
78117;BME280;69042;59.120;37.904;2024-02-26T05:00:15;100783.19;;;2.08;71.59
78117;BME280;69042;59.120;37.904;2024-02-26T05:02:42;100773.78;;;2.12;72.18
78117;BME280;69042;59.120;37.904;2024-02-26T05:05:08;100779.78;;;2.17;71.96
78117;BME280;69042;59.120;37.904;2024-02-26T05:07:44;100778.09;;;2.19;72.26
78117;BME280;69042;59.120;37.904;2024-02-26T05:10:11;100777.22;;;2.22;71.45
78117;BME280;69042;59.120;37.904;2024-02-26T05:12:38;100780.66;;;2.24;71.98
78117;BME280;69042;59.120;37.904;2024-02-26T05:15:05;100784.97;;;2.26;72.20
78117;BME280;69042;59.120;37.904;2024-02-26T05:17:32;100791.88;;;2.31;71.57
78117;BME280;69042;59.120;37.904;2024-02-26T05:19:58;100791.00;;;2.32;71.76
78117;BME280;69042;59.120;37.904;2024-02-26T05:22:25;100790.16;;;2.36;71.97
78117;BME280;69042;59.120;37.904;2024-02-26T05:24:51;100773.81;;;2.34;71.66
78117;BME280;69042;59.120;37.904;2024-02-26T05:27:18;100781.56;;;2.43;71.91
78117;BME280;69042;59.120;37.904;2024-02-26T05:29:45;100782.44;;;2.46;71.62
78117;BME280;69042;59.120;37.904;2024-02-26T05:32:12;100788.47;;;2.50;71.53
78117;BME280;69042;59.120;37.904;2024-02-26T05:34:39;100786.75;;;2.54;72.12
78117;BME280;69042;59.120;37.904;2024-02-26T05:37:07;100780.72;;;2.53;72.07
78117;BME280;69042;59.120;37.904;2024-02-26T05:39:34;100780.75;;;2.59;72.57
78117;BME280;69042;59.120;37.904;2024-02-26T05:42:00;100776.44;;;2.60;71.61
78117;BME280;69042;59.120;37.904;2024-02-26T05:44:27;100778.16;;;2.62;71.96
78117;BME280;69042;59.120;37.904;2024-02-26T05:46:53;100770.44;;;2.62;72.15
78117;BME280;69042;59.120;37.904;2024-02-26T05:49:20;100774.75;;;2.66;71.70
78117;BME280;69042;59.120;37.904;2024-02-26T05:51:47;100774.75;;;2.71;71.69
78117;BME280;69042;59.120;37.904;2024-02-26T05:54:14;100771.28;;;2.74;71.76
78117;BME280;69042;59.120;37.904;2024-02-26T05:56:40;100773.88;;;2.74;71.57
78117;BME280;69042;59.120;37.904;2024-02-26T05:59:07;100766.13;;;2.72;71.48
78117;BME280;69042;59.120;37.904;2024-02-26T06:01:33;100768.72;;;2.74;71.38
78117;BME280;69042;59.120;37.904;2024-02-26T06:04:01;100769.56;;;2.76;71.71
78117;BME280;69042;59.120;37.904;2024-02-26T06:06:29;100768.72;;;2.78;71.55
78117;BME280;69042;59.120;37.904;2024-02-26T06:08:56;100765.28;;;2.79;71.89
78117;BME280;69042;59.120;37.904;2024-02-26T06:11:23;100767.00;;;2.79;71.55
78117;BME280;69042;59.120;37.904;2024-02-26T06:13:49;100769.56;;;2.79;71.50
78117;BME280;69042;59.120;37.904;2024-02-26T06:16:16;100768.72;;;2.80;71.77
78117;BME280;69042;59.120;37.904;2024-02-26T06:18:42;100765.28;;;2.78;71.35
78117;BME280;69042;59.120;37.904;2024-02-26T06:21:12;100768.69;;;2.81;71.12
78117;BME280;69042;59.120;37.904;2024-02-26T06:23:39;100765.28;;;2.82;71.40
78117;BME280;69042;59.120;37.904;2024-02-26T06:26:06;100760.13;;;2.84;71.58
78117;BME280;69042;59.120;37.904;2024-02-26T06:28:32;100760.09;;;2.85;71.33
78117;BME280;69042;59.120;37.904;2024-02-26T06:31:02;100756.69;;;2.86;71.75
78117;BME280;69042;59.120;37.904;2024-02-26T06:33:28;100754.09;;;2.83;71.23
78117;BME280;69042;59.120;37.904;2024-02-26T06:35:55;100759.25;;;2.88;70.60
78117;BME280;69042;59.120;37.904;2024-02-26T06:38:21;100758.41;;;2.84;71.26
78117;BME280;69042;59.120;37.904;2024-02-26T06:40:48;100764.41;;;2.89;71.24
78117;BME280;69042;59.120;37.904;2024-02-26T06:43:14;100766.13;;;2.87;70.92
78117;BME280;69042;59.120;37.904;2024-02-26T06:45:41;100758.41;;;2.89;71.12
78117;BME280;69042;59.120;37.904;2024-02-26T06:48:08;100756.66;;;2.88;71.27
78117;BME280;69042;59.120;37.904;2024-02-26T06:50:34;100762.72;;;2.88;71.14
78117;BME280;69042;59.120;37.904;2024-02-26T06:53:01;100762.72;;;2.93;71.27
78117;BME280;69042;59.120;37.904;2024-02-26T06:55:28;100756.69;;;2.96;71.10
78117;BME280;69042;59.120;37.904;2024-02-26T06:57:54;100754.97;;;2.98;70.48
78117;BME280;69042;59.120;37.904;2024-02-26T07:00:21;100760.97;;;3.01;70.82
78117;BME280;69042;59.120;37.904;2024-02-26T07:02:47;100755.81;;;3.03;70.41
78117;BME280;69042;59.120;37.904;2024-02-26T07:05:14;100747.19;;;3.05;71.00
78117;BME280;69042;59.120;37.904;2024-02-26T07:07:40;100751.50;;;3.09;70.28
78117;BME280;69042;59.120;37.904;2024-02-26T07:10:07;100740.28;;;3.10;70.23
78117;BME280;69042;59.120;37.904;2024-02-26T07:12:34;100744.59;;;3.10;70.78
78117;BME280;69042;59.120;37.904;2024-02-26T07:15:02;100754.06;;;3.09;70.35
78117;BME280;69042;59.120;37.904;2024-02-26T07:17:28;100743.75;;;3.11;70.27
78117;BME280;69042;59.120;37.904;2024-02-26T07:19:55;100748.03;;;3.12;70.35
78117;BME280;69042;59.120;37.904;2024-02-26T07:22:22;100749.78;;;3.13;70.39
78117;BME280;69042;59.120;37.904;2024-02-26T07:24:50;100747.19;;;3.11;69.90
78117;BME280;69042;59.120;37.904;2024-02-26T07:27:20;100745.47;;;3.10;70.28
78117;BME280;69042;59.120;37.904;2024-02-26T07:29:47;100741.19;;;3.11;69.59
78117;BME280;69042;59.120;37.904;2024-02-26T07:32:14;100736.84;;;3.10;69.63
78117;BME280;69042;59.120;37.904;2024-02-26T07:34:40;100743.75;;;3.08;70.16
78117;BME280;69042;59.120;37.904;2024-02-26T07:37:11;100742.91;;;3.09;70.28
78117;BME280;69042;59.120;37.904;2024-02-26T07:39:37;100736.00;;;3.09;69.99
78117;BME280;69042;59.120;37.904;2024-02-26T07:42:04;100743.75;;;3.11;70.22
78117;BME280;69042;59.120;37.904;2024-02-26T07:44:30;100741.19;;;3.11;69.67
78117;BME280;69042;59.120;37.904;2024-02-26T07:46:57;100739.44;;;3.10;69.59
78117;BME280;69042;59.120;37.904;2024-02-26T07:49:23;100737.72;;;3.12;69.45
78117;BME280;69042;59.120;37.904;2024-02-26T07:51:49;100742.03;;;3.13;69.55
78117;BME280;69042;59.120;37.904;2024-02-26T07:54:16;100733.41;;;3.16;69.87
78117;BME280;69042;59.120;37.904;2024-02-26T07:56:42;100745.47;;;3.18;69.59
78117;BME280;69042;59.120;37.904;2024-02-26T07:59:09;100743.72;;;3.17;69.69
78117;BME280;69042;59.120;37.904;2024-02-26T08:01:35;100738.56;;;3.14;69.72
78117;BME280;69042;59.120;37.904;2024-02-26T08:04:05;100741.16;;;3.14;69.49
78117;BME280;69042;59.120;37.904;2024-02-26T08:06:31;100739.47;;;3.13;69.33
78117;BME280;69042;59.120;37.904;2024-02-26T08:08:58;100734.28;;;3.13;69.17
78117;BME280;69042;59.120;37.904;2024-02-26T08:11:24;100732.53;;;3.10;68.94
78117;BME280;69042;59.120;37.904;2024-02-26T08:13:50;100733.44;;;3.06;68.79
78117;BME280;69042;59.120;37.904;2024-02-26T08:16:18;100736.00;;;3.05;69.19
78117;BME280;69042;59.120;37.904;2024-02-26T08:18:45;100717.09;;;3.04;69.21
78117;BME280;69042;59.120;37.904;2024-02-26T08:21:11;100729.97;;;3.07;69.36
78117;BME280;69042;59.120;37.904;2024-02-26T08:23:38;100721.38;;;3.10;69.54
78117;BME280;69042;59.120;37.904;2024-02-26T08:26:05;100721.38;;;3.13;69.55
78117;BME280;69042;59.120;37.904;2024-02-26T08:28:33;100726.53;;;3.16;68.16
78117;BME280;69042;59.120;37.904;2024-02-26T08:30:59;100716.19;;;3.16;68.94
78117;BME280;69042;59.120;37.904;2024-02-26T08:33:25;100723.94;;;3.15;68.28
78117;BME280;69042;59.120;37.904;2024-02-26T08:35:52;100714.47;;;3.10;68.72
78117;BME280;69042;59.120;37.904;2024-02-26T08:38:18;100720.53;;;3.11;68.66
78117;BME280;69042;59.120;37.904;2024-02-26T08:40:45;100720.50;;;3.12;69.11
78117;BME280;69042;59.120;37.904;2024-02-26T08:43:11;100719.66;;;3.13;68.64
78117;BME280;69042;59.120;37.904;2024-02-26T08:45:37;100723.94;;;3.15;69.21
78117;BME280;69042;59.120;37.904;2024-02-26T08:48:04;100716.22;;;3.13;68.03
78117;BME280;69042;59.120;37.904;2024-02-26T08:50:31;100728.25;;;3.09;68.34
78117;BME280;69042;59.120;37.904;2024-02-26T08:52:57;100728.28;;;3.06;68.31
78117;BME280;69042;59.120;37.904;2024-02-26T08:55:24;100721.38;;;3.05;68.29
78117;BME280;69042;59.120;37.904;2024-02-26T08:57:51;100718.81;;;3.02;69.16
78117;BME280;69042;59.120;37.904;2024-02-26T09:00:18;100716.19;;;3.04;68.84
78117;BME280;69042;59.120;37.904;2024-02-26T09:02:49;100720.50;;;3.08;68.54
78117;BME280;69042;59.120;37.904;2024-02-26T09:05:15;100716.19;;;3.08;68.31
78117;BME280;69042;59.120;37.904;2024-02-26T09:07:42;100711.03;;;3.10;68.68
78117;BME280;69042;59.120;37.904;2024-02-26T09:10:09;100709.31;;;3.10;68.60
78117;BME280;69042;59.120;37.904;2024-02-26T09:12:37;100708.47;;;3.10;68.59
78117;BME280;69042;59.120;37.904;2024-02-26T09:15:05;100705.00;;;3.12;68.40
78117;BME280;69042;59.120;37.904;2024-02-26T09:17:31;100708.47;;;3.13;68.18
78117;BME280;69042;59.120;37.904;2024-02-26T09:19:58;100705.88;;;3.10;68.29
78117;BME280;69042;59.120;37.904;2024-02-26T09:22:24;100703.28;;;3.08;68.68
78117;BME280;69042;59.120;37.904;2024-02-26T09:24:51;100705.88;;;3.10;68.23
78117;BME280;69042;59.120;37.904;2024-02-26T09:27:19;100709.31;;;3.10;67.83
78117;BME280;69042;59.120;37.904;2024-02-26T09:29:46;100699.84;;;3.09;68.49
78117;BME280;69042;59.120;37.904;2024-02-26T09:32:13;100692.13;;;3.05;67.77
78117;BME280;69042;59.120;37.904;2024-02-26T09:34:42;100699.84;;;3.08;68.51
78117;BME280;69042;59.120;37.904;2024-02-26T09:37:08;100695.53;;;3.08;68.43
78117;BME280;69042;59.120;37.904;2024-02-26T09:39:36;100704.16;;;3.12;68.13
78117;BME280;69042;59.120;37.904;2024-02-26T09:42:04;100693.84;;;3.13;68.55
78117;BME280;69042;59.120;37.904;2024-02-26T09:44:33;100694.66;;;3.19;68.35
78117;BME280;69042;59.120;37.904;2024-02-26T09:47:03;100692.94;;;3.24;68.26
78117;BME280;69042;59.120;37.904;2024-02-26T09:49:29;100691.19;;;3.26;68.17
78117;BME280;69042;59.120;37.904;2024-02-26T09:51:56;100680.00;;;3.24;67.52
78117;BME280;69042;59.120;37.904;2024-02-26T09:54:25;100680.91;;;3.24;67.63
78117;BME280;69042;59.120;37.904;2024-02-26T09:57:00;100687.78;;;3.16;67.94
78117;BME280;69042;59.120;37.904;2024-02-26T09:59:29;100686.94;;;3.12;67.42
78117;BME280;69042;59.120;37.904;2024-02-26T10:02:03;100699.00;;;3.12;67.58
78117;BME280;69042;59.120;37.904;2024-02-26T10:04:31;100684.38;;;3.11;67.42
78117;BME280;69042;59.120;37.904;2024-02-26T10:06:58;100691.25;;;3.12;67.86
78117;BME280;69042;59.120;37.904;2024-02-26T10:09:26;100686.94;;;3.09;67.32
78117;BME280;69042;59.120;37.904;2024-02-26T10:11:52;100685.22;;;3.05;67.44
78117;BME280;69042;59.120;37.904;2024-02-26T10:14:19;100681.81;;;3.06;67.26
78117;BME280;69042;59.120;37.904;2024-02-26T10:16:45;100682.63;;;3.08;67.39
78117;BME280;69042;59.120;37.904;2024-02-26T10:19:25;100668.03;;;3.09;67.44
78117;BME280;69042;59.120;37.904;2024-02-26T10:21:59;100676.59;;;3.19;67.65
78117;BME280;69042;59.120;37.904;2024-02-26T10:24:27;100674.84;;;3.24;68.14
78117;BME280;69042;59.120;37.904;2024-02-26T10:26:55;100674.84;;;3.31;67.35
78117;BME280;69042;59.120;37.904;2024-02-26T10:29:25;100673.97;;;3.34;67.56
78117;BME280;69042;59.120;37.904;2024-02-26T10:31:52;100668.81;;;3.32;67.65
78117;BME280;69042;59.120;37.904;2024-02-26T10:34:19;100673.97;;;3.28;67.74
78117;BME280;69042;59.120;37.904;2024-02-26T10:36:47;100673.13;;;3.26;67.54
78117;BME280;69042;59.120;37.904;2024-02-26T10:39:13;100680.03;;;3.27;67.20
78117;BME280;69042;59.120;37.904;2024-02-26T10:41:42;100669.69;;;3.24;67.52
78117;BME280;69042;59.120;37.904;2024-02-26T10:44:09;100678.28;;;3.26;67.64
78117;BME280;69042;59.120;37.904;2024-02-26T10:46:37;100673.13;;;3.29;67.80
78117;BME280;69042;59.120;37.904;2024-02-26T10:49:04;100674.84;;;3.31;67.95
78117;BME280;69042;59.120;37.904;2024-02-26T10:51:34;100671.41;;;3.29;67.02
78117;BME280;69042;59.120;37.904;2024-02-26T10:54:02;100670.53;;;3.27;66.87
78117;BME280;69042;59.120;37.904;2024-02-26T10:56:36;100671.41;;;3.25;67.50
78117;BME280;69042;59.120;37.904;2024-02-26T10:59:07;100674.00;;;3.23;67.30
78117;BME280;69042;59.120;37.904;2024-02-26T11:01:36;100673.16;;;3.23;67.34
78117;BME280;69042;59.120;37.904;2024-02-26T11:04:04;100669.72;;;3.22;66.67
78117;BME280;69042;59.120;37.904;2024-02-26T11:06:31;100660.25;;;3.10;67.23
78117;BME280;69042;59.120;37.904;2024-02-26T11:09:03;100676.59;;;3.19;68.18
78117;BME280;69042;59.120;37.904;2024-02-26T11:11:32;100663.69;;;3.17;68.10
78117;BME280;69042;59.120;37.904;2024-02-26T11:14:01;100671.44;;;3.14;67.36
78117;BME280;69042;59.120;37.904;2024-02-26T11:16:30;100676.63;;;3.09;67.46
78117;BME280;69042;59.120;37.904;2024-02-26T11:18:57;100668.88;;;3.08;68.55
78117;BME280;69042;59.120;37.904;2024-02-26T11:21:24;100675.78;;;3.09;68.27
78117;BME280;69042;59.120;37.904;2024-02-26T11:23:57;100670.56;;;3.10;67.87
78117;BME280;69042;59.120;37.904;2024-02-26T11:26:24;100670.56;;;3.17;68.16
78117;BME280;69042;59.120;37.904;2024-02-26T11:28:53;100662.81;;;3.21;68.02
78117;BME280;69042;59.120;37.904;2024-02-26T11:31:20;100669.69;;;3.27;67.95
78117;BME280;69042;59.120;37.904;2024-02-26T11:33:54;100661.06;;;3.29;67.92
78117;BME280;69042;59.120;37.904;2024-02-26T11:36:21;100666.22;;;3.36;67.75
78117;BME280;69042;59.120;37.904;2024-02-26T11:38:49;100657.59;;;3.38;67.70
78117;BME280;69042;59.120;37.904;2024-02-26T11:41:18;100660.19;;;3.38;67.12
78117;BME280;69042;59.120;37.904;2024-02-26T11:46:30;100658.47;;;3.40;68.04
78117;BME280;69042;59.120;37.904;2024-02-26T11:51:56;100657.59;;;3.35;67.75
78117;BME280;69042;59.120;37.904;2024-02-26T11:54:45;100646.41;;;3.34;67.98
78117;BME280;69042;59.120;37.904;2024-02-26T11:59:55;100636.91;;;3.40;68.21
78117;BME280;69042;59.120;37.904;2024-02-26T12:02:44;100641.19;;;3.44;68.01
78117;BME280;69042;59.120;37.904;2024-02-26T12:05:16;100643.81;;;3.41;67.70
78117;BME280;69042;59.120;37.904;2024-02-26T12:07:49;100655.00;;;3.37;67.99
78117;BME280;69042;59.120;37.904;2024-02-26T12:10:26;100655.91;;;3.28;68.10
78117;BME280;69042;59.120;37.904;2024-02-26T12:12:58;100654.22;;;3.22;67.53
78117;BME280;69042;59.120;37.904;2024-02-26T12:15:31;100652.50;;;3.17;67.82
78117;BME280;69042;59.120;37.904;2024-02-26T12:18:01;100645.66;;;3.05;67.95
78117;BME280;69042;59.120;37.904;2024-02-26T12:20:28;100648.22;;;3.14;67.95
78117;BME280;69042;59.120;37.904;2024-02-26T12:22:56;100645.63;;;3.16;68.15
78117;BME280;69042;59.120;37.904;2024-02-26T12:25:25;100637.88;;;3.14;68.02
78117;BME280;69042;59.120;37.904;2024-02-26T12:27:55;100635.31;;;3.09;68.07
78117;BME280;69042;59.120;37.904;2024-02-26T12:30:23;100649.09;;;3.05;67.69
78117;BME280;69042;59.120;37.904;2024-02-26T12:32:51;100642.22;;;2.98;68.21
78117;BME280;69042;59.120;37.904;2024-02-26T12:35:18;100641.38;;;2.91;68.05
78117;BME280;69042;59.120;37.904;2024-02-26T12:37:44;100644.84;;;2.89;67.48
78117;BME280;69042;59.120;37.904;2024-02-26T12:40:12;100653.44;;;2.89;68.14
78117;BME280;69042;59.120;37.904;2024-02-26T12:42:39;100656.03;;;2.86;67.78
78117;BME280;69042;59.120;37.904;2024-02-26T12:45:08;100649.16;;;2.84;67.75
78117;BME280;69042;59.120;37.904;2024-02-26T12:47:40;100660.31;;;2.81;67.87
78117;BME280;69042;59.120;37.904;2024-02-26T12:50:08;100649.16;;;2.78;68.11
78117;BME280;69042;59.120;37.904;2024-02-26T12:52:42;100649.16;;;2.71;68.05
78117;BME280;69042;59.120;37.904;2024-02-26T12:55:12;100648.31;;;2.68;67.86
78117;BME280;69042;59.120;37.904;2024-02-26T12:57:42;100645.72;;;2.63;67.85
78117;BME280;69042;59.120;37.904;2024-02-26T13:00:22;100644.88;;;2.58;68.13